sensor_id;sensor_type;location;lat;lon;timestamp;pressure;altitude;pressure_sealevel;temperature;humidity
72086;BME280;64750;52.134;5.424;2024-03-02T00:00:50;99974.13;;;8.37;76.31
72086;BME280;64750;52.134;5.424;2024-03-02T00:03:18;99972.34;;;8.37;76.67
72086;BME280;64750;52.134;5.424;2024-03-02T00:05:49;99961.75;;;8.39;76.77
72086;BME280;64750;52.134;5.424;2024-03-02T00:08:25;99962.63;;;8.40;76.87
72086;BME280;64750;52.134;5.424;2024-03-02T00:11:01;99963.44;;;8.40;76.98
72086;BME280;64750;52.134;5.424;2024-03-02T00:13:29;99962.53;;;8.41;76.75
72086;BME280;64750;52.134;5.424;2024-03-02T00:15:57;99986.09;;;8.41;76.98
72086;BME280;64750;52.134;5.424;2024-03-02T00:18:31;99979.06;;;8.42;76.67
72086;BME280;64750;52.134;5.424;2024-03-02T00:20:58;99990.28;;;8.44;76.68
72086;BME280;64750;52.134;5.424;2024-03-02T00:23:30;99996.34;;;8.44;76.61
72086;BME280;64750;52.134;5.424;2024-03-02T00:25:58;99998.81;;;8.47;76.54
72086;BME280;64750;52.134;5.424;2024-03-02T00:28:34;100020.59;;;8.48;76.61
72086;BME280;64750;52.134;5.424;2024-03-02T00:31:06;100019.75;;;8.47;76.61
72086;BME280;64750;52.134;5.424;2024-03-02T00:33:35;100025.72;;;8.49;76.85
72086;BME280;64750;52.134;5.424;2024-03-02T00:36:03;100044.06;;;8.49;76.89
72086;BME280;64750;52.134;5.424;2024-03-02T00:38:30;100051.91;;;8.49;77.15
72086;BME280;64750;52.134;5.424;2024-03-02T00:41:04;100056.22;;;8.50;77.15
72086;BME280;64750;52.134;5.424;2024-03-02T00:43:47;100064.06;;;8.50;77.36
72086;BME280;64750;52.134;5.424;2024-03-02T00:46:19;100084.19;;;8.50;77.42
72086;BME280;64750;52.134;5.424;2024-03-02T00:48:51;100088.59;;;8.49;77.78
72086;BME280;64750;52.134;5.424;2024-03-02T00:51:18;100084.28;;;8.48;78.07
72086;BME280;64750;52.134;5.424;2024-03-02T00:53:45;100085.31;;;8.46;78.34
72086;BME280;64750;52.134;5.424;2024-03-02T00:56:11;100079.31;;;8.44;78.60
72086;BME280;64750;52.134;5.424;2024-03-02T00:58:41;100082.97;;;8.41;79.04
72086;BME280;64750;52.134;5.424;2024-03-02T01:01:07;100096.44;;;8.35;79.56
72086;BME280;64750;52.134;5.424;2024-03-02T01:03:34;100089.53;;;8.34;80.44
72086;BME280;64750;52.134;5.424;2024-03-02T01:06:01;100087.84;;;8.33;80.80
72086;BME280;64750;52.134;5.424;2024-03-02T01:08:28;100094.09;;;8.30;81.33
72086;BME280;64750;52.134;5.424;2024-03-02T01:10:55;100091.59;;;8.29;81.92
72086;BME280;64750;52.134;5.424;2024-03-02T01:13:22;100094.19;;;8.29;81.95
72086;BME280;64750;52.134;5.424;2024-03-02T01:15:50;100102.25;;;8.26;82.40
72086;BME280;64750;52.134;5.424;2024-03-02T01:18:17;100105.16;;;8.21;82.39
72086;BME280;64750;52.134;5.424;2024-03-02T01:20:43;100095.50;;;8.21;83.08
72086;BME280;64750;52.134;5.424;2024-03-02T01:23:10;100080.94;;;8.17;83.30
72086;BME280;64750;52.134;5.424;2024-03-02T01:25:36;100104.03;;;8.11;83.72
72086;BME280;64750;52.134;5.424;2024-03-02T01:28:03;100120.56;;;8.11;84.32
72086;BME280;64750;52.134;5.424;2024-03-02T01:30:30;100115.66;;;8.07;84.23
72086;BME280;64750;52.134;5.424;2024-03-02T01:32:57;100117.41;;;8.06;84.75
72086;BME280;64750;52.134;5.424;2024-03-02T01:35:25;100111.34;;;8.05;84.71
72086;BME280;64750;52.134;5.424;2024-03-02T01:37:53;100100.88;;;8.05;84.85
72086;BME280;64750;52.134;5.424;2024-03-02T01:40:20;100100.03;;;8.05;84.92
72086;BME280;64750;52.134;5.424;2024-03-02T01:42:47;100110.50;;;8.05;85.27
72086;BME280;64750;52.134;5.424;2024-03-02T01:45:13;100109.75;;;8.03;85.35
72086;BME280;64750;52.134;5.424;2024-03-02T01:47:40;100112.38;;;8.03;85.54
72086;BME280;64750;52.134;5.424;2024-03-02T01:50:07;100114.22;;;8.01;85.68
72086;BME280;64750;52.134;5.424;2024-03-02T01:52:33;100112.56;;;8.00;85.72
72086;BME280;64750;52.134;5.424;2024-03-02T01:55:00;100113.59;;;7.97;85.91
72086;BME280;64750;52.134;5.424;2024-03-02T01:57:26;100115.47;;;7.95;86.20
72086;BME280;64750;52.134;5.424;2024-03-02T01:59:53;100113.78;;;7.94;86.30
72086;BME280;64750;52.134;5.424;2024-03-02T02:02:19;100114.78;;;7.92;86.67
72086;BME280;64750;52.134;5.424;2024-03-02T02:04:46;100113.09;;;7.91;86.73
72086;BME280;64750;52.134;5.424;2024-03-02T02:07:13;100113.31;;;7.87;86.69
72086;BME280;64750;52.134;5.424;2024-03-02T02:09:43;100104.59;;;7.87;87.01
72086;BME280;64750;52.134;5.424;2024-03-02T02:12:10;100112.66;;;7.84;86.58
72086;BME280;64750;52.134;5.424;2024-03-02T02:14:37;100118.06;;;7.81;87.10
72086;BME280;64750;52.134;5.424;2024-03-02T02:17:03;100126.09;;;7.78;87.57
72086;BME280;64750;52.134;5.424;2024-03-02T02:19:30;100123.47;;;7.78;87.34
72086;BME280;64750;52.134;5.424;2024-03-02T02:21:56;100122.66;;;7.77;87.89
72086;BME280;64750;52.134;5.424;2024-03-02T02:24:23;100113.38;;;7.71;88.20
72086;BME280;64750;52.134;5.424;2024-03-02T02:26:49;100121.31;;;7.70;88.71
72086;BME280;64750;52.134;5.424;2024-03-02T02:29:16;100113.47;;;7.70;88.85
72086;BME280;64750;52.134;5.424;2024-03-02T02:31:42;100098.69;;;7.69;89.13
72086;BME280;64750;52.134;5.424;2024-03-02T02:34:09;100104.97;;;7.66;89.39
72086;BME280;64750;52.134;5.424;2024-03-02T02:36:38;100106.75;;;7.66;89.85
72086;BME280;64750;52.134;5.424;2024-03-02T02:39:08;100110.28;;;7.65;90.15
72086;BME280;64750;52.134;5.424;2024-03-02T02:41:37;100124.22;;;7.65;90.38
72086;BME280;64750;52.134;5.424;2024-03-02T02:44:04;100127.78;;;7.64;90.33
72086;BME280;64750;52.134;5.424;2024-03-02T02:46:31;100120.03;;;7.63;90.92
72086;BME280;64750;52.134;5.424;2024-03-02T02:48:57;100125.41;;;7.60;91.09
72086;BME280;64750;52.134;5.424;2024-03-02T02:51:24;100122.06;;;7.58;91.00
72086;BME280;64750;52.134;5.424;2024-03-02T02:53:52;100122.91;;;7.58;91.24
72086;BME280;64750;52.134;5.424;2024-03-02T02:56:18;100121.41;;;7.54;91.74
72086;BME280;64750;52.134;5.424;2024-03-02T02:58:44;100117.94;;;7.53;91.22
72086;BME280;64750;52.134;5.424;2024-03-02T03:01:11;100139.19;;;7.47;91.22
72086;BME280;64750;52.134;5.424;2024-03-02T03:03:38;100127.66;;;7.51;91.00
72086;BME280;64750;52.134;5.424;2024-03-02T03:06:04;100129.50;;;7.49;91.06
72086;BME280;64750;52.134;5.424;2024-03-02T03:08:31;100129.50;;;7.49;91.16
72086;BME280;64750;52.134;5.424;2024-03-02T03:10:57;100121.75;;;7.48;90.99
72086;BME280;64750;52.134;5.424;2024-03-02T03:13:24;100127.81;;;7.48;91.06
72086;BME280;64750;52.134;5.424;2024-03-02T03:15:50;100131.34;;;7.47;91.52
72086;BME280;64750;52.134;5.424;2024-03-02T03:18:17;100123.50;;;7.47;91.32
72086;BME280;64750;52.134;5.424;2024-03-02T03:20:44;100122.78;;;7.45;91.39
72086;BME280;64750;52.134;5.424;2024-03-02T03:23:10;100124.72;;;7.42;91.20
72086;BME280;64750;52.134;5.424;2024-03-02T03:25:44;100133.41;;;7.42;91.11
72086;BME280;64750;52.134;5.424;2024-03-02T03:28:13;100128.09;;;7.44;91.46
72086;BME280;64750;52.134;5.424;2024-03-02T03:30:39;100132.47;;;7.43;90.78
72086;BME280;64750;52.134;5.424;2024-03-02T03:33:06;100137.91;;;7.40;90.37
72086;BME280;64750;52.134;5.424;2024-03-02T03:35:33;100146.56;;;7.41;90.26
72086;BME280;64750;52.134;5.424;2024-03-02T03:37:59;100141.34;;;7.41;89.86
72086;BME280;64750;52.134;5.424;2024-03-02T03:40:26;100143.94;;;7.41;89.44
72086;BME280;64750;52.134;5.424;2024-03-02T03:42:52;100141.34;;;7.41;89.48
72086;BME280;64750;52.134;5.424;2024-03-02T03:45:19;100143.13;;;7.40;89.56
72086;BME280;64750;52.134;5.424;2024-03-02T03:47:46;100146.47;;;7.42;89.29
72086;BME280;64750;52.134;5.424;2024-03-02T03:50:13;100147.50;;;7.39;89.48
72086;BME280;64750;52.134;5.424;2024-03-02T03:52:39;100154.50;;;7.39;89.59
72086;BME280;64750;52.134;5.424;2024-03-02T03:55:06;100154.41;;;7.41;89.53
72086;BME280;64750;52.134;5.424;2024-03-02T03:57:32;100161.44;;;7.40;89.18
72086;BME280;64750;52.134;5.424;2024-03-02T03:59:59;100150.09;;;7.39;89.42
72086;BME280;64750;52.134;5.424;2024-03-02T04:02:26;100145.91;;;7.37;89.28
72086;BME280;64750;52.134;5.424;2024-03-02T04:04:53;100137.13;;;7.38;89.53
72086;BME280;64750;52.134;5.424;2024-03-02T04:07:19;100150.19;;;7.38;89.30
72086;BME280;64750;52.134;5.424;2024-03-02T04:09:46;100155.53;;;7.36;88.92
72086;BME280;64750;52.134;5.424;2024-03-02T04:12:12;100157.22;;;7.37;89.14
72086;BME280;64750;52.134;5.424;2024-03-02T04:14:39;100165.97;;;7.36;89.14
72086;BME280;64750;52.134;5.424;2024-03-02T04:17:08;100158.91;;;7.38;88.86
72086;BME280;64750;52.134;5.424;2024-03-02T04:19:36;100170.19;;;7.39;89.02
72086;BME280;64750;52.134;5.424;2024-03-02T04:22:03;100165.88;;;7.38;89.13
72086;BME280;64750;52.134;5.424;2024-03-02T04:24:43;100167.47;;;7.41;89.04
72086;BME280;64750;52.134;5.424;2024-03-02T04:27:10;100166.66;;;7.40;89.07
72086;BME280;64750;52.134;5.424;2024-03-02T04:29:36;100164.13;;;7.38;89.07
72086;BME280;64750;52.134;5.424;2024-03-02T04:32:03;100161.44;;;7.40;88.80
72086;BME280;64750;52.134;5.424;2024-03-02T04:34:29;100168.50;;;7.38;89.05
72086;BME280;64750;52.134;5.424;2024-03-02T04:36:56;100167.66;;;7.37;88.97
72086;BME280;64750;52.134;5.424;2024-03-02T04:39:22;100178.22;;;7.36;88.83
72086;BME280;64750;52.134;5.424;2024-03-02T04:41:49;100182.50;;;7.37;88.73
72086;BME280;64750;52.134;5.424;2024-03-02T04:44:15;100178.97;;;7.38;88.70
72086;BME280;64750;52.134;5.424;2024-03-02T04:46:42;100181.66;;;7.36;88.94
72086;BME280;64750;52.134;5.424;2024-03-02T04:49:08;100183.44;;;7.36;88.74
72086;BME280;64750;52.134;5.424;2024-03-02T04:51:35;100189.59;;;7.35;88.65
72086;BME280;64750;52.134;5.424;2024-03-02T04:54:01;100200.06;;;7.35;88.97
72086;BME280;64750;52.134;5.424;2024-03-02T04:56:27;100196.69;;;7.33;88.90
72086;BME280;64750;52.134;5.424;2024-03-02T04:58:57;100202.78;;;7.33;88.56
72086;BME280;64750;52.134;5.424;2024-03-02T05:01:23;100203.69;;;7.32;88.42
72086;BME280;64750;52.134;5.424;2024-03-02T05:03:50;100193.97;;;7.34;88.74
72086;BME280;64750;52.134;5.424;2024-03-02T05:06:17;100197.53;;;7.33;88.36
72086;BME280;64750;52.134;5.424;2024-03-02T05:08:43;100205.28;;;7.35;88.29
72086;BME280;64750;52.134;5.424;2024-03-02T05:11:11;100197.34;;;7.36;88.30
72086;BME280;64750;52.134;5.424;2024-03-02T05:14:15;100207.13;;;7.33;87.94
72086;BME280;64750;52.134;5.424;2024-03-02T05:16:42;100200.22;;;7.32;87.75
72086;BME280;64750;52.134;5.424;2024-03-02T05:19:08;100206.41;;;7.31;87.64
72086;BME280;64750;52.134;5.424;2024-03-02T05:21:35;100206.41;;;7.31;87.62
72086;BME280;64750;52.134;5.424;2024-03-02T05:24:01;100207.31;;;7.30;87.44
72086;BME280;64750;52.134;5.424;2024-03-02T05:26:28;100205.44;;;7.32;87.18
72086;BME280;64750;52.134;5.424;2024-03-02T05:28:55;100205.44;;;7.32;87.36
72086;BME280;64750;52.134;5.424;2024-03-02T05:31:21;100207.13;;;7.33;86.99
72086;BME280;64750;52.134;5.424;2024-03-02T05:33:48;100202.09;;;7.30;86.41
72086;BME280;64750;52.134;5.424;2024-03-02T05:36:18;100219.47;;;7.31;86.61
72086;BME280;64750;52.134;5.424;2024-03-02T05:38:44;100209.84;;;7.31;86.05
72086;BME280;64750;52.134;5.424;2024-03-02T05:41:10;100205.44;;;7.32;86.50
72086;BME280;64750;52.134;5.424;2024-03-02T05:43:38;100202.94;;;7.30;85.74
72086;BME280;64750;52.134;5.424;2024-03-02T05:46:05;100203.94;;;7.28;85.45
72086;BME280;64750;52.134;5.424;2024-03-02T05:48:31;100208.50;;;7.24;85.02
72086;BME280;64750;52.134;5.424;2024-03-02T05:50:57;100214.75;;;7.21;84.76
72086;BME280;64750;52.134;5.424;2024-03-02T05:53:24;100210.53;;;7.19;84.20
72086;BME280;64750;52.134;5.424;2024-03-02T05:55:50;100214.84;;;7.20;84.02
72086;BME280;64750;52.134;5.424;2024-03-02T05:58:22;100217.44;;;7.20;83.73
72086;BME280;64750;52.134;5.424;2024-03-02T06:01:04;100227.06;;;7.19;83.73
72086;BME280;64750;52.134;5.424;2024-03-02T06:03:32;100224.47;;;7.19;83.15
72086;BME280;64750;52.134;5.424;2024-03-02T06:05:58;100233.91;;;7.22;83.04
72086;BME280;64750;52.134;5.424;2024-03-02T06:08:25;100230.41;;;7.21;83.03
72086;BME280;64750;52.134;5.424;2024-03-02T06:10:52;100232.13;;;7.22;82.82
72086;BME280;64750;52.134;5.424;2024-03-02T06:13:18;100234.81;;;7.21;82.88
72086;BME280;64750;52.134;5.424;2024-03-02T06:15:45;100241.88;;;7.19;83.23
72086;BME280;64750;52.134;5.424;2024-03-02T06:18:12;100236.66;;;7.19;83.30
72086;BME280;64750;52.134;5.424;2024-03-02T06:20:39;100237.44;;;7.21;83.79
72086;BME280;64750;52.134;5.424;2024-03-02T06:23:05;100246.19;;;7.20;84.03
72086;BME280;64750;52.134;5.424;2024-03-02T06:25:31;100243.75;;;7.17;83.91
72086;BME280;64750;52.134;5.424;2024-03-02T06:27:58;100249.81;;;7.17;84.50
72086;BME280;64750;52.134;5.424;2024-03-02T06:30:25;100258.59;;;7.16;84.59
72086;BME280;64750;52.134;5.424;2024-03-02T06:32:51;100255.13;;;7.16;84.55
72086;BME280;64750;52.134;5.424;2024-03-02T06:35:18;100262.97;;;7.16;84.93
72086;BME280;64750;52.134;5.424;2024-03-02T06:37:44;100268.97;;;7.18;84.64
72086;BME280;64750;52.134;5.424;2024-03-02T06:40:11;100266.38;;;7.18;84.85
72086;BME280;64750;52.134;5.424;2024-03-02T06:42:40;100275.13;;;7.17;84.80
72086;BME280;64750;52.134;5.424;2024-03-02T06:45:06;100270.00;;;7.15;84.94
72086;BME280;64750;52.134;5.424;2024-03-02T06:47:33;100272.59;;;7.15;84.49
72086;BME280;64750;52.134;5.424;2024-03-02T06:49:59;100265.69;;;7.14;84.81
72086;BME280;64750;52.134;5.424;2024-03-02T06:52:26;100269.13;;;7.15;84.62
72086;BME280;64750;52.134;5.424;2024-03-02T06:54:52;100265.78;;;7.13;84.86
72086;BME280;64750;52.134;5.424;2024-03-02T06:57:19;100272.66;;;7.14;84.84
72086;BME280;64750;52.134;5.424;2024-03-02T06:59:47;100264.81;;;7.14;84.80
72086;BME280;64750;52.134;5.424;2024-03-02T07:02:16;100268.31;;;7.14;85.00
72086;BME280;64750;52.134;5.424;2024-03-02T07:04:43;100261.28;;;7.15;84.55
72086;BME280;64750;52.134;5.424;2024-03-02T07:07:09;100265.59;;;7.16;84.63
72086;BME280;64750;52.134;5.424;2024-03-02T07:09:36;100269.13;;;7.15;84.52
72086;BME280;64750;52.134;5.424;2024-03-02T07:12:03;100276.97;;;7.15;84.95
72086;BME280;64750;52.134;5.424;2024-03-02T07:14:29;100271.66;;;7.16;84.61
72086;BME280;64750;52.134;5.424;2024-03-02T07:17:14;100268.13;;;7.17;84.69
72086;BME280;64750;52.134;5.424;2024-03-02T07:19:41;100267.19;;;7.18;84.44
72086;BME280;64750;52.134;5.424;2024-03-02T07:22:08;100267.09;;;7.20;84.37
72086;BME280;64750;52.134;5.424;2024-03-02T07:24:43;100270.59;;;7.20;84.50
72086;BME280;64750;52.134;5.424;2024-03-02T07:27:10;100280.84;;;7.23;84.58
72086;BME280;64750;52.134;5.424;2024-03-02T07:29:37;100276.41;;;7.26;84.58
72086;BME280;64750;52.134;5.424;2024-03-02T07:32:04;100272.69;;;7.30;84.18
72086;BME280;64750;52.134;5.424;2024-03-02T07:34:38;100285.56;;;7.33;84.46
72086;BME280;64750;52.134;5.424;2024-03-02T07:37:05;100280.91;;;7.38;84.48
72086;BME280;64750;52.134;5.424;2024-03-02T07:39:32;100282.59;;;7.39;84.02
72086;BME280;64750;52.134;5.424;2024-03-02T07:41:59;100290.38;;;7.41;84.05
72086;BME280;64750;52.134;5.424;2024-03-02T07:44:27;100293.84;;;7.41;84.20
72086;BME280;64750;52.134;5.424;2024-03-02T07:46:53;100292.88;;;7.42;84.27
72086;BME280;64750;52.134;5.424;2024-03-02T07:49:20;100296.47;;;7.41;83.74
72086;BME280;64750;52.134;5.424;2024-03-02T07:51:46;100292.97;;;7.41;83.79
72086;BME280;64750;52.134;5.424;2024-03-02T07:54:13;100299.06;;;7.41;83.86
72086;BME280;64750;52.134;5.424;2024-03-02T07:56:39;100299.06;;;7.41;84.20
72086;BME280;64750;52.134;5.424;2024-03-02T07:59:06;100300.91;;;7.39;83.98
72086;BME280;64750;52.134;5.424;2024-03-02T08:01:33;100296.50;;;7.39;83.95
72086;BME280;64750;52.134;5.424;2024-03-02T08:04:01;100300.91;;;7.39;84.20
72086;BME280;64750;52.134;5.424;2024-03-02T08:06:30;100306.31;;;7.36;83.99
72086;BME280;64750;52.134;5.424;2024-03-02T08:08:57;100301.94;;;7.36;83.94
72086;BME280;64750;52.134;5.424;2024-03-02T08:11:24;100313.31;;;7.35;83.88
72086;BME280;64750;52.134;5.424;2024-03-02T08:13:50;100316.78;;;7.36;83.90
72086;BME280;64750;52.134;5.424;2024-03-02T08:16:19;100317.63;;;7.36;83.81
72086;BME280;64750;52.134;5.424;2024-03-02T08:18:49;100313.22;;;7.37;83.86
72086;BME280;64750;52.134;5.424;2024-03-02T08:21:16;100314.91;;;7.38;83.57
72086;BME280;64750;52.134;5.424;2024-03-02T08:23:43;100318.38;;;7.38;83.49
72086;BME280;64750;52.134;5.424;2024-03-02T08:26:11;100318.38;;;7.38;83.97
72086;BME280;64750;52.134;5.424;2024-03-02T08:28:38;100311.19;;;7.42;83.51
72086;BME280;64750;52.134;5.424;2024-03-02T08:31:08;100317.09;;;7.46;83.67
72086;BME280;64750;52.134;5.424;2024-03-02T08:33:35;100315.94;;;7.51;83.51
72086;BME280;64750;52.134;5.424;2024-03-02T08:36:04;100311.97;;;7.60;83.39
72086;BME280;64750;52.134;5.424;2024-03-02T08:38:31;100311.59;;;7.66;83.10
72086;BME280;64750;52.134;5.424;2024-03-02T08:40:57;100306.28;;;7.68;83.23
72086;BME280;64750;52.134;5.424;2024-03-02T08:43:24;100309.50;;;7.73;83.41
72086;BME280;64750;52.134;5.424;2024-03-02T08:45:51;100320.69;;;7.75;83.05
72086;BME280;64750;52.134;5.424;2024-03-02T08:48:17;100323.97;;;7.79;83.40
72086;BME280;64750;52.134;5.424;2024-03-02T08:50:44;100316.03;;;7.80;82.94
72086;BME280;64750;52.134;5.424;2024-03-02T08:53:13;100314.19;;;7.82;82.94
72086;BME280;64750;52.134;5.424;2024-03-02T08:55:47;100320.00;;;7.87;82.85
72086;BME280;64750;52.134;5.424;2024-03-02T08:58:14;100310.47;;;7.86;82.69
72086;BME280;64750;52.134;5.424;2024-03-02T09:00:41;100316.38;;;7.90;82.68
72086;BME280;64750;52.134;5.424;2024-03-02T09:03:08;100313.66;;;7.92;82.63
72086;BME280;64750;52.134;5.424;2024-03-02T09:05:35;100317.88;;;7.94;82.64
72086;BME280;64750;52.134;5.424;2024-03-02T09:08:01;100309.09;;;7.95;81.81
72086;BME280;64750;52.134;5.424;2024-03-02T09:10:29;100319.38;;;7.98;82.26
72086;BME280;64750;52.134;5.424;2024-03-02T09:12:56;100315.75;;;8.01;82.04
72086;BME280;64750;52.134;5.424;2024-03-02T09:15:23;100316.31;;;8.06;81.70
72086;BME280;64750;52.134;5.424;2024-03-02T09:17:49;100316.88;;;8.11;81.66
72086;BME280;64750;52.134;5.424;2024-03-02T09:20:16;100317.47;;;8.16;81.25
72086;BME280;64750;52.134;5.424;2024-03-02T09:22:42;100316.72;;;8.14;80.08
72086;BME280;64750;52.134;5.424;2024-03-02T09:25:09;100314.78;;;8.18;79.85
72086;BME280;64750;52.134;5.424;2024-03-02T09:27:39;100320.66;;;8.21;79.65
72086;BME280;64750;52.134;5.424;2024-03-02T09:30:07;100318.59;;;8.27;79.36
72086;BME280;64750;52.134;5.424;2024-03-02T09:32:34;100322.81;;;8.29;78.93
72086;BME280;64750;52.134;5.424;2024-03-02T09:35:01;100318.25;;;8.33;78.91
72086;BME280;64750;52.134;5.424;2024-03-02T09:37:27;100323.31;;;8.36;78.29
72086;BME280;64750;52.134;5.424;2024-03-02T09:39:55;100326.50;;;8.41;77.92
72086;BME280;64750;52.134;5.424;2024-03-02T09:42:21;100326.50;;;8.41;76.98
72086;BME280;64750;52.134;5.424;2024-03-02T09:44:50;100326.31;;;8.44;77.65
72086;BME280;64750;52.134;5.424;2024-03-02T09:47:16;100333.00;;;8.50;77.08
72086;BME280;64750;52.134;5.424;2024-03-02T09:49:43;100329.44;;;8.51;76.34
72086;BME280;64750;52.134;5.424;2024-03-02T09:52:10;100340.66;;;8.53;75.49
72086;BME280;64750;52.134;5.424;2024-03-02T09:54:37;100326.44;;;8.57;75.08
72086;BME280;64750;52.134;5.424;2024-03-02T09:57:03;100321.88;;;8.61;74.81
72086;BME280;64750;52.134;5.424;2024-03-02T09:59:30;100330.50;;;8.63;74.83
72086;BME280;64750;52.134;5.424;2024-03-02T10:01:58;100330.50;;;8.63;74.09
72086;BME280;64750;52.134;5.424;2024-03-02T10:04:26;100324.28;;;8.64;74.60
72086;BME280;64750;52.134;5.424;2024-03-02T10:09:43;100334.97;;;8.75;74.36
72086;BME280;64750;52.134;5.424;2024-03-02T10:12:14;100322.63;;;8.77;74.28
72086;BME280;64750;52.134;5.424;2024-03-02T10:14:42;100321.59;;;8.80;74.04
72086;BME280;64750;52.134;5.424;2024-03-02T10:17:13;100325.81;;;8.82;74.14
72086;BME280;64750;52.134;5.424;2024-03-02T10:19:40;100320.38;;;8.85;73.67
72086;BME280;64750;52.134;5.424;2024-03-02T10:22:08;100318.41;;;8.89;73.64
72086;BME280;64750;52.134;5.424;2024-03-02T10:24:42;100321.91;;;8.90;73.22
72086;BME280;64750;52.134;5.424;2024-03-02T10:27:22;100325.91;;;8.95;73.66
72086;BME280;64750;52.134;5.424;2024-03-02T10:29:49;100313.63;;;8.96;73.46
72086;BME280;64750;52.134;5.424;2024-03-02T10:32:16;100327.41;;;8.99;73.90
72086;BME280;64750;52.134;5.424;2024-03-02T10:34:44;100326.25;;;9.03;72.75
72086;BME280;64750;52.134;5.424;2024-03-02T10:37:12;100325.16;;;9.08;72.72
72086;BME280;64750;52.134;5.424;2024-03-02T10:39:39;100317.19;;;9.09;72.67
72086;BME280;64750;52.134;5.424;2024-03-02T10:42:07;100314.47;;;9.11;72.01
72086;BME280;64750;52.134;5.424;2024-03-02T10:44:34;100311.75;;;9.12;72.43
72086;BME280;64750;52.134;5.424;2024-03-02T10:47:03;100302.94;;;9.13;71.89
72086;BME280;64750;52.134;5.424;2024-03-02T10:49:31;100305.19;;;9.19;72.27
72086;BME280;64750;52.134;5.424;2024-03-02T10:51:59;100303.13;;;9.25;72.19
72086;BME280;64750;52.134;5.424;2024-03-02T10:54:26;100299.34;;;9.29;72.28
72086;BME280;64750;52.134;5.424;2024-03-02T10:56:59;100287.94;;;9.30;72.19
72086;BME280;64750;52.134;5.424;2024-03-02T10:59:34;100290.44;;;9.31;72.15
72086;BME280;64750;52.134;5.424;2024-03-02T11:02:02;100283.22;;;9.35;71.71
72086;BME280;64750;52.134;5.424;2024-03-02T11:04:32;100290.88;;;9.38;71.19
72086;BME280;64750;52.134;5.424;2024-03-02T11:07:06;100282.63;;;9.44;71.03
72086;BME280;64750;52.134;5.424;2024-03-02T11:09:34;100297.69;;;9.55;70.63
72086;BME280;64750;52.134;5.424;2024-03-02T11:12:28;100287.19;;;9.55;70.68
72086;BME280;64750;52.134;5.424;2024-03-02T11:14:56;100297.59;;;9.57;71.25
72086;BME280;64750;52.134;5.424;2024-03-02T11:17:23;100286.88;;;9.60;70.96
72086;BME280;64750;52.134;5.424;2024-03-02T11:19:50;100300.00;;;9.60;70.20
72086;BME280;64750;52.134;5.424;2024-03-02T11:22:18;100292.88;;;9.62;70.71
72086;BME280;64750;52.134;5.424;2024-03-02T11:24:49;100292.66;;;9.65;70.43
72086;BME280;64750;52.134;5.424;2024-03-02T11:32:58;100293.75;;;9.75;68.23
72086;BME280;64750;52.134;5.424;2024-03-02T11:35:26;100286.41;;;9.80;68.28
72086;BME280;64750;52.134;5.424;2024-03-02T11:37:52;100282.75;;;9.83;67.50
72086;BME280;64750;52.134;5.424;2024-03-02T11:40:22;100273.84;;;9.85;67.33
72086;BME280;64750;52.134;5.424;2024-03-02T11:42:48;100277.44;;;9.84;68.25
72086;BME280;64750;52.134;5.424;2024-03-02T11:45:25;100265.56;;;9.92;68.12
72086;BME280;64750;52.134;5.424;2024-03-02T11:47:57;100265.38;;;9.95;68.26
72086;BME280;64750;52.134;5.424;2024-03-02T11:52:58;100268.59;;;9.98;66.85
72086;BME280;64750;52.134;5.424;2024-03-02T11:55:28;100263.28;;;10.00;65.93
72086;BME280;64750;52.134;5.424;2024-03-02T11:57:57;100251.63;;;10.04;65.99
72086;BME280;64750;52.134;5.424;2024-03-02T12:00:25;100256.53;;;10.09;66.16
72086;BME280;64750;52.134;5.424;2024-03-02T12:03:08;100254.78;;;10.09;65.89
72086;BME280;64750;52.134;5.424;2024-03-02T12:05:35;100252.03;;;10.11;65.78
72086;BME280;64750;52.134;5.424;2024-03-02T12:08:04;100251.75;;;10.15;64.53
72086;BME280;64750;52.134;5.424;2024-03-02T12:10:31;100245.31;;;10.20;63.96
72086;BME280;64750;52.134;5.424;2024-03-02T12:13:03;100235.66;;;10.20;63.85
72086;BME280;64750;52.134;5.424;2024-03-02T12:15:32;100233.66;;;10.24;64.23
72086;BME280;64750;52.134;5.424;2024-03-02T12:18:00;100237.16;;;10.24;63.96
72086;BME280;64750;52.134;5.424;2024-03-02T12:20:29;100226.94;;;10.32;64.04
72086;BME280;64750;52.134;5.424;2024-03-02T12:22:58;100239.03;;;10.35;63.83
72086;BME280;64750;52.134;5.424;2024-03-02T12:25:25;100229.56;;;10.32;64.08
72086;BME280;64750;52.134;5.424;2024-03-02T12:27:56;100232.06;;;10.34;64.30
72086;BME280;64750;52.134;5.424;2024-03-02T12:30:23;100230.22;;;10.36;64.54
72086;BME280;64750;52.134;5.424;2024-03-02T12:32:50;100220.25;;;10.41;64.92
72086;BME280;64750;52.134;5.424;2024-03-02T12:35:17;100219.31;;;10.42;65.30
72086;BME280;64750;52.134;5.424;2024-03-02T12:37:48;100219.06;;;10.45;65.39
72086;BME280;64750;52.134;5.424;2024-03-02T12:40:16;100225.28;;;10.44;65.07
72086;BME280;64750;52.134;5.424;2024-03-02T12:42:46;100224.31;;;10.45;65.49
72086;BME280;64750;52.134;5.424;2024-03-02T12:45:13;100225.91;;;10.48;65.48
72086;BME280;64750;52.134;5.424;2024-03-02T12:47:41;100213.50;;;10.50;65.38
72086;BME280;64750;52.134;5.424;2024-03-02T12:50:09;100199.31;;;10.53;65.45
72086;BME280;64750;52.134;5.424;2024-03-02T12:52:36;100198.25;;;10.55;65.60
72086;BME280;64750;52.134;5.424;2024-03-02T12:55:05;100197.31;;;10.56;65.34
72086;BME280;64750;52.134;5.424;2024-03-02T12:57:33;100194.56;;;10.58;64.88
72086;BME280;64750;52.134;5.424;2024-03-02T13:00:04;100196.56;;;10.54;65.12
72086;BME280;64750;52.134;5.424;2024-03-02T13:02:40;100191.22;;;10.56;65.54
72086;BME280;64750;52.134;5.424;2024-03-02T13:05:07;100191.84;;;10.59;64.94
72086;BME280;64750;52.134;5.424;2024-03-02T13:07:38;100189.22;;;10.59;65.06
72086;BME280;64750;52.134;5.424;2024-03-02T13:10:06;100194.16;;;10.64;65.10
72086;BME280;64750;52.134;5.424;2024-03-02T13:12:35;100194.84;;;10.66;65.61
72086;BME280;64750;52.134;5.424;2024-03-02T13:15:03;100194.03;;;10.65;65.74